Time;durP1;ratioP1;P1;durP2;ratioP2;P2;SDS_P1;SDS_P2;PMS_P1;PMS_P2;Temp;Humidity;BMP_temperature;BMP_pressure;BME280_temperature;BME280_humidity;BME280_pressure;Samples;Min_cycle;Max_cycle;Signal;HPM_P1;HPM_P2
2022/06/16 00:00:42;;;;;;;7.68;4.60;;;;;;;25.81;59.52;101179.19;5072344;28;20041;-78
2022/06/16 00:03:10;;;;;;;8.63;4.43;;;;;;;25.82;59.59;101174.59;5072879;28;20063;-78
2022/06/16 00:05:42;;;;;;;8.63;4.88;;;;;;;25.81;59.50;101168.31;5071117;28;20052;-78
2022/06/16 00:08:12;;;;;;;8.38;4.90;;;;;;;25.82;59.60;101171.88;5072674;28;20048;-77
2022/06/16 00:11:16;;;;;;;10.73;5.20;;;;;;;25.82;59.49;101172.72;5073948;28;20052;-77
2022/06/16 00:13:38;;;;;;;6.28;4.22;;;;;;;25.84;59.36;101172.53;5057492;28;20048;-78
2022/06/16 00:16:07;;;;;;;11.00;5.22;;;;;;;25.82;59.40;101171.88;5076421;28;20392;-78
2022/06/16 00:18:35;;;;;;;8.70;4.47;;;;;;;25.84;59.40;101161.69;5075932;28;20048;-79
2022/06/16 00:21:04;;;;;;;6.70;4.60;;;;;;;25.84;59.48;101150.84;5075994;28;20049;-79
2022/06/16 00:23:32;;;;;;;9.43;5.22;;;;;;;25.85;59.37;101144.44;5075974;28;20049;-78
2022/06/16 00:26:14;;;;;;;7.75;4.70;;;;;;;25.86;59.43;101143.41;5076045;28;20403;-78
2022/06/16 00:28:41;;;;;;;7.07;4.93;;;;;;;25.86;59.30;101149.69;5077695;28;20047;-78
2022/06/16 00:31:11;;;;;;;8.10;4.95;;;;;;;25.86;59.26;101152.41;5094327;28;20056;-78
2022/06/16 00:33:39;;;;;;;9.30;5.57;;;;;;;25.87;59.16;101174.94;5094894;28;20411;-78
2022/06/16 00:36:07;;;;;;;8.15;5.47;;;;;;;25.88;59.20;101182.91;5094666;28;20055;-78
2022/06/16 00:38:34;;;;;;;6.70;4.18;;;;;;;25.88;59.21;101184.75;5094746;28;20044;-78
2022/06/16 00:41:02;;;;;;;9.68;4.82;;;;;;;25.90;59.06;101182.75;5096032;28;20040;-77
2022/06/16 00:43:30;;;;;;;11.35;4.72;;;;;;;25.91;59.19;101189.88;5094751;28;20071;-78
2022/06/16 00:46:06;;;;;;;11.05;5.68;;;;;;;25.91;59.39;101194.44;5094799;28;20060;-78
2022/06/16 00:48:42;;;;;;;8.57;5.57;;;;;;;25.91;59.27;101181.72;5096092;28;20052;-78
2022/06/16 00:51:16;;;;;;;8.82;5.05;;;;;;;25.92;59.20;101185.28;5089129;28;20052;-78
2022/06/16 00:53:44;;;;;;;6.90;5.10;;;;;;;25.93;59.18;101198.69;5057497;28;20060;-78
2022/06/16 00:56:17;;;;;;;10.20;5.00;;;;;;;25.94;58.98;101196.81;5074145;28;20052;-79
2022/06/16 00:58:48;;;;;;;7.57;5.03;;;;;;;25.94;59.22;101186.81;5073890;28;20041;-79
2022/06/16 01:01:20;;;;;;;7.90;4.60;;;;;;;25.94;59.09;101184.09;5075623;28;20052;-79
2022/06/16 01:06:36;;;;;;;6.20;4.95;;;;;;;25.96;59.14;101183.94;5073751;28;20063;-78
2022/06/16 01:09:18;;;;;;;11.63;5.05;;;;;;;25.95;59.02;101177.66;5074990;28;20048;-78
2022/06/16 01:15:07;;;;;;;8.57;5.22;;;;;;;25.96;59.11;101173.94;5073906;28;20052;-77
2022/06/16 01:17:47;;;;;;;11.77;4.57;;;;;;;25.97;59.03;101177.47;5073569;28;20040;-77
2022/06/16 01:20:44;;;;;;;8.48;4.53;;;;;;;25.97;59.01;101172.06;5073387;28;20044;-77
2022/06/16 01:23:30;;;;;;;10.95;4.90;;;;;;;25.97;58.96;101177.47;5073703;28;20053;-77
2022/06/16 01:26:46;;;;;;;7.43;4.88;;;;;;;25.96;58.98;101163.06;5074210;28;20059;-77
2022/06/16 01:29:45;;;;;;;8.88;5.30;;;;;;;25.96;58.93;101156.81;5079141;28;20395;-77
2022/06/16 01:32:42;;;;;;;13.90;6.00;;;;;;;25.96;58.91;101162.22;5076227;28;20051;-77
2022/06/16 01:35:32;;;;;;;7.10;4.55;;;;;;;25.96;58.81;101162.22;5093921;28;20096;-79
2022/06/16 01:38:27;;;;;;;6.97;4.63;;;;;;;25.95;58.71;101166.81;5093324;28;20056;-79
2022/06/16 01:41:17;;;;;;;10.95;5.57;;;;;;;25.94;58.75;101162.41;5093371;28;20052;-79
2022/06/16 01:43:52;;;;;;;8.52;4.53;;;;;;;25.95;58.62;101158.66;5093646;28;20044;-79
2022/06/16 01:46:30;;;;;;;8.10;5.10;;;;;;;25.95;58.75;101158.66;5092808;28;20088;-79
2022/06/16 01:49:15;;;;;;;14.32;5.40;;;;;;;25.95;58.76;101166.81;5077823;28;20059;-79
2022/06/16 01:51:47;;;;;;;12.32;5.57;;;;;;;25.96;58.61;101167.66;5093204;28;20055;-79
2022/06/16 01:54:47;;;;;;;11.93;6.03;;;;;;;25.97;58.76;101172.06;5093019;28;20487;-78
2022/06/16 01:57:26;;;;;;;9.55;4.97;;;;;;;25.96;58.66;101165.78;5089706;28;20059;-78
2022/06/16 02:00:09;;;;;;;10.75;5.18;;;;;;;25.97;58.63;101163.91;5093777;28;20048;-78
2022/06/16 02:02:52;;;;;;;10.25;4.95;;;;;;;25.97;58.61;101155.78;5100281;28;20048;-79
2022/06/16 02:05:25;;;;;;;9.10;4.43;;;;;;;25.96;58.19;101152.22;5092890;28;20059;-79
2022/06/16 02:08:05;;;;;;;9.75;5.22;;;;;;;25.97;58.39;101158.50;5092375;28;20051;-79
2022/06/16 02:10:37;;;;;;;9.18;4.88;;;;;;;25.97;58.54;101156.66;5093082;28;20502;-78
2022/06/16 02:13:09;;;;;;;7.72;4.72;;;;;;;25.97;58.27;101159.38;5076229;28;20051;-78
2022/06/16 02:15:42;;;;;;;8.05;4.88;;;;;;;25.97;58.25;101163.91;5081800;28;20510;-78
2022/06/16 02:18:13;;;;;;;11.18;4.80;;;;;;;25.98;58.39;101169.19;5072531;28;20126;-78
2022/06/16 02:20:57;;;;;;;7.55;5.13;;;;;;;25.97;58.45;101159.38;5072261;28;20045;-79
2022/06/16 02:23:24;;;;;;;7.50;4.65;;;;;;;25.98;58.50;101152.91;5072520;28;20056;-78
2022/06/16 02:25:56;;;;;;;6.07;4.40;;;;;;;25.99;58.41;101149.19;5072271;28;20492;-78
2022/06/16 02:28:25;;;;;;;10.63;4.95;;;;;;;25.99;58.42;101153.75;5072248;28;20075;-78
2022/06/16 02:31:12;;;;;;;10.13;5.22;;;;;;;25.99;58.24;101156.47;5074316;28;20041;-78
2022/06/16 02:33:51;;;;;;;12.82;5.05;;;;;;;25.99;58.38;101143.75;5072559;28;20037;-78
2022/06/16 02:36:49;;;;;;;10.30;4.82;;;;;;;25.99;58.32;101130.19;5072528;28;20511;-78
2022/06/16 02:39:33;;;;;;;8.80;5.22;;;;;;;25.99;58.27;101126.63;5071384;28;20055;-78
2022/06/16 02:42:16;;;;;;;8.00;4.47;;;;;;;25.99;58.27;101127.47;5071475;28;20053;-78
2022/06/16 02:45:11;;;;;;;9.75;5.15;;;;;;;26.00;58.21;101129.16;5071725;28;20052;-78
2022/06/16 02:47:54;;;;;;;7.93;5.20;;;;;;;25.99;58.24;101124.75;5072210;28;20075;-78
2022/06/16 02:50:34;;;;;;;8.32;4.43;;;;;;;26.00;58.31;101125.59;5071242;28;20049;-78
2022/06/16 02:53:09;;;;;;;7.68;5.10;;;;;;;26.01;58.26;101128.16;5073466;28;20395;-79
2022/06/16 02:55:47;;;;;;;9.95;4.50;;;;;;;26.01;58.30;101125.47;5071844;28;20056;-79
2022/06/16 02:58:20;;;;;;;9.02;4.72;;;;;;;26.00;58.28;101125.59;5073290;28;20043;-78
2022/06/16 03:00:53;;;;;;;6.93;4.30;;;;;;;26.01;58.27;101132.72;5073063;28;20376;-78
2022/06/16 03:03:24;;;;;;;9.48;4.70;;;;;;;26.01;57.88;101125.47;5073263;28;20476;-79
2022/06/16 03:06:03;;;;;;;10.98;5.47;;;;;;;26.02;58.05;101120.88;5056648;28;20068;-79
2022/06/16 03:08:36;;;;;;;10.05;5.03;;;;;;;26.01;58.45;101130.88;5071349;28;20048;-78
2022/06/16 03:11:03;;;;;;;;;;;;;;;26.00;58.11;101134.59;5071790;28;20048;-78
2022/06/16 03:13:33;;;;;;;8.63;5.30;;;;;;;25.98;57.78;101133.94;5071310;28;19920;-78
2022/06/16 03:16:02;;;;;;;11.43;5.53;;;;;;;25.94;57.73;101134.44;5071029;28;20052;-78
2022/06/16 03:18:32;;;;;;;13.38;5.63;;;;;;;25.85;58.08;101139.84;5071202;28;20048;-78
2022/06/16 03:20:59;;;;;;;10.93;5.07;;;;;;;25.79;58.10;101136.94;5071374;28;20045;-78
2022/06/16 03:23:27;;;;;;;13.70;5.10;;;;;;;25.73;57.90;101135.72;5071150;28;20053;-78
2022/06/16 03:25:54;;;;;;;14.23;5.47;;;;;;;25.70;58.13;101143.34;5072133;28;20411;-78
2022/06/16 03:28:21;;;;;;;11.85;4.95;;;;;;;25.66;58.57;101148.25;5071374;28;20051;-76
2022/06/16 03:30:49;;;;;;;11.02;4.60;;;;;;;25.62;58.53;101138.75;5073960;28;20075;-76
2022/06/16 03:33:19;;;;;;;9.63;5.28;;;;;;;25.59;58.77;101149.91;5090009;28;20125;-76
2022/06/16 03:35:51;;;;;;;13.27;5.15;;;;;;;25.57;58.87;101155.53;5090937;28;20048;-78
2022/06/16 03:40:53;;;;;;;10.68;5.40;;;;;;;25.50;59.05;101153.63;5091916;28;20048;-78
2022/06/16 03:43:20;;;;;;;12.07;5.75;;;;;;;25.45;59.23;101142.44;5091526;28;20048;-78
2022/06/16 03:45:52;;;;;;;9.05;5.93;;;;;;;25.43;59.47;101139.03;5094803;28;20048;-78
2022/06/16 03:48:20;;;;;;;7.22;5.20;;;;;;;25.41;59.64;101144.63;5095444;28;20388;-78
2022/06/16 03:50:49;;;;;;;8.88;5.55;;;;;;;25.41;59.57;101141.91;5095543;28;20503;-78
2022/06/16 03:53:18;;;;;;;9.25;5.47;;;;;;;25.40;59.74;101148.31;5094997;28;20504;-78
2022/06/16 03:55:53;;;;;;;6.90;5.22;;;;;;;25.41;59.68;101152.75;5095820;28;20059;-78
2022/06/16 03:58:24;;;;;;;13.75;5.38;;;;;;;25.39;59.60;101154.78;5095242;28;20052;-78
2022/06/16 04:00:52;;;;;;;9.05;5.70;;;;;;;25.38;59.79;101162.06;5094804;28;20052;-78
2022/06/16 04:06:11;;;;;;;9.93;5.07;;;;;;;25.35;59.54;101156.13;5095685;28;20055;-78
2022/06/16 04:08:40;;;;;;;9.13;5.70;;;;;;;25.35;59.65;101164.25;5095114;28;20052;-78
2022/06/16 04:11:27;;;;;;;9.25;5.20;;;;;;;25.33;59.53;101153.56;5093495;28;20043;-78
2022/06/16 04:14:02;;;;;;;10.70;6.07;;;;;;;25.33;59.47;101166.28;5074363;28;20044;-78
2022/06/16 04:16:35;;;;;;;10.30;5.78;;;;;;;25.27;59.70;101162.34;5074404;28;20388;-78
2022/06/16 04:19:05;;;;;;;10.40;5.97;;;;;;;25.26;59.97;101162.53;5108459;28;20406;-78
2022/06/16 04:21:38;;;;;;;8.50;5.05;;;;;;;25.24;60.24;101168.13;5090678;28;20098;-78
2022/06/16 04:24:34;;;;;;;12.63;5.82;;;;;;;25.21;60.20;101173.00;5074383;28;20063;-78
2022/06/16 04:27:02;;;;;;;13.10;6.22;;;;;;;25.19;60.16;101167.72;5073610;28;20060;-78
2022/06/16 04:29:29;;;;;;;9.95;5.60;;;;;;;25.18;60.26;101173.31;5072960;28;20060;-78
2022/06/16 04:31:58;;;;;;;10.70;5.63;;;;;;;25.17;60.42;101186.03;5051042;28;20055;-78
2022/06/16 04:34:37;;;;;;;12.32;6.03;;;;;;;25.18;60.82;101192.28;5040906;28;20057;-77
2022/06/16 04:37:05;;;;;;;13.00;6.43;;;;;;;25.18;60.74;101184.16;5033305;28;20064;-78
2022/06/16 04:39:33;;;;;;;12.65;6.70;;;;;;;25.14;60.24;101179.06;5032309;28;20061;-78
2022/06/16 04:42:00;;;;;;;14.02;6.43;;;;;;;25.14;60.44;101176.34;5032699;28;20049;-78
2022/06/16 04:44:28;;;;;;;13.70;8.07;;;;;;;25.13;60.00;101184.66;5032940;28;20148;-78
2022/06/16 04:46:56;;;;;;;14.73;7.90;;;;;;;25.13;59.56;101185.50;5032615;28;20057;-77
2022/06/16 04:49:26;;;;;;;10.88;7.03;;;;;;;25.14;59.81;101178.22;5032991;28;20045;-77
2022/06/16 04:51:54;;;;;;;11.93;7.03;;;;;;;25.15;59.61;101172.63;4985155;28;20041;-78
2022/06/16 04:54:24;;;;;;;11.95;7.88;;;;;;;25.18;59.60;101181.44;4997313;28;20386;-78
2022/06/16 04:57:02;;;;;;;11.30;7.65;;;;;;;25.18;59.71;101182.31;4997962;28;20097;-78
2022/06/16 04:59:32;;;;;;;13.95;7.97;;;;;;;25.19;59.98;101192.13;5019905;28;20058;-78
2022/06/16 05:02:16;;;;;;;10.73;8.18;;;;;;;25.21;59.95;101200.09;5013250;28;20049;-78
2022/06/16 05:04:50;;;;;;;12.05;7.78;;;;;;;25.21;59.97;101194.69;5022087;28;20053;-78
2022/06/16 05:07:33;;;;;;;14.65;9.40;;;;;;;25.21;60.20;101184.69;5031652;28;20061;-78
2022/06/16 05:10:19;;;;;;;11.75;8.25;;;;;;;25.24;60.07;101188.91;5018309;28;20525;-78
2022/06/16 05:12:59;;;;;;;15.43;9.57;;;;;;;25.25;60.13;101196.06;5030869;28;20070;-78
2022/06/16 05:15:45;;;;;;;15.63;9.20;;;;;;;25.26;60.05;101197.75;5022519;28;20065;-79
2022/06/16 05:18:42;;;;;;;13.80;10.13;;;;;;;25.26;60.33;101192.31;5033871;28;20065;-78
2022/06/16 05:21:38;;;;;;;16.33;9.80;;;;;;;25.27;60.40;101189.44;5032920;28;20041;-78
2022/06/16 05:24:22;;;;;;;14.93;10.02;;;;;;;25.29;60.50;101192.84;5015826;28;20056;-78
2022/06/16 05:27:04;;;;;;;16.83;10.13;;;;;;;25.30;60.62;101202.69;5015918;28;20061;-78
2022/06/16 05:29:47;;;;;;;14.07;9.90;;;;;;;25.32;60.95;101197.09;5016377;28;20053;-79
2022/06/16 05:32:17;;;;;;;12.40;10.35;;;;;;;25.33;60.91;101196.94;5032564;28;20444;-79
2022/06/16 05:35:05;;;;;;;12.57;10.85;;;;;;;25.34;60.91;101204.06;5031701;28;20053;-78
2022/06/16 05:37:53;;;;;;;15.57;10.63;;;;;;;25.36;61.04;101202.03;5032306;28;20057;-79
2022/06/16 05:40:27;;;;;;;13.43;10.02;;;;;;;25.37;61.36;101202.88;5034300;28;20061;-79
2022/06/16 05:43:34;;;;;;;17.33;11.73;;;;;;;25.37;61.76;101211.88;5019030;28;20049;-78
2022/06/16 05:46:35;;;;;;;18.10;12.23;;;;;;;25.39;61.87;101203.56;4993942;28;20050;-78
2022/06/16 05:49:05;;;;;;;12.75;10.65;;;;;;;25.38;61.96;101202.72;4993000;28;20439;-78
2022/06/16 05:51:33;;;;;;;15.65;11.23;;;;;;;25.41;62.24;101206.97;4976231;28;20058;-79
2022/06/16 05:54:06;;;;;;;13.57;12.17;;;;;;;25.42;62.30;101214.09;4976510;28;20195;-79
2022/06/16 05:56:37;;;;;;;24.23;13.77;;;;;;;25.43;62.09;101221.19;4957197;28;20481;-79
2022/06/16 05:59:05;;;;;;;17.67;11.85;;;;;;;25.43;62.16;101232.03;4957147;28;20054;-79
2022/06/16 06:01:38;;;;;;;13.70;12.30;;;;;;;25.44;62.52;101224.75;4957552;28;20051;-78
2022/06/16 06:04:08;;;;;;;14.23;12.20;;;;;;;25.44;62.56;101231.00;4973331;28;20054;-78
2022/06/16 06:06:37;;;;;;;15.68;13.27;;;;;;;25.45;62.93;101232.75;4972826;28;20062;-78
2022/06/16 06:17:29;;;;;;;17.67;12.35;;;;;;;25.51;62.65;101229.38;4991517;28;20054;-79
2022/06/16 06:20:03;;;;;;;16.48;11.60;;;;;;;25.52;62.91;101231.09;4992496;28;20058;-77
2022/06/16 06:22:30;;;;;;;12.27;9.98;;;;;;;25.55;62.73;101235.31;4995868;28;20525;-78
2022/06/16 06:25:08;;;;;;;14.73;12.57;;;;;;;25.57;63.34;101239.56;5012878;28;20050;-78
2022/06/16 06:27:39;;;;;;;13.27;11.20;;;;;;;25.58;63.24;101235.00;5013064;28;20056;-85
2022/06/16 06:30:13;;;;;;;15.95;12.63;;;;;;;25.58;63.16;101238.53;5012666;28;20064;-80
2022/06/16 06:32:41;;;;;;;16.25;13.35;;;;;;;25.61;63.60;101235.53;4996259;28;20054;-76
2022/06/16 06:35:11;;;;;;;13.10;11.85;;;;;;;25.64;63.21;101239.75;5034248;28;20539;-76
2022/06/16 06:37:39;;;;;;;16.77;11.75;;;;;;;25.65;63.36;101247.72;5052010;28;20051;-77
2022/06/16 06:40:07;;;;;;;15.13;13.18;;;;;;;25.65;63.67;101236.03;5051596;28;20072;-77
2022/06/16 06:42:34;;;;;;;17.50;15.77;;;;;;;25.62;62.97;101236.38;5051210;28;20049;-77
2022/06/16 06:45:02;;;;;;;16.55;14.43;;;;;;;25.61;62.98;101242.81;5053412;28;20044;-76
2022/06/16 06:47:30;;;;;;;16.85;14.10;;;;;;;25.60;62.71;101243.78;5052929;28;20051;-76
2022/06/16 06:49:58;;;;;;;13.93;12.57;;;;;;;25.60;63.07;101241.09;5061051;28;20052;-76
2022/06/16 06:52:25;;;;;;;12.88;11.68;;;;;;;25.62;62.54;101250.75;5086493;28;20044;-77
2022/06/16 06:54:53;;;;;;;13.25;11.85;;;;;;;25.63;62.63;101248.91;5072172;28;20063;-76
2022/06/16 06:57:23;;;;;;;13.45;11.52;;;;;;;25.64;62.88;101246.03;5073017;28;20052;-76
2022/06/16 06:59:51;;;;;;;12.30;10.95;;;;;;;25.66;62.40;101243.16;5073058;28;20048;-77
2022/06/16 07:02:19;;;;;;;13.88;10.63;;;;;;;25.69;62.13;101240.13;5073247;28;20052;-78
2022/06/16 07:04:47;;;;;;;11.60;10.43;;;;;;;25.72;61.86;101230.78;5072489;28;20051;-78
2022/06/16 07:07:20;;;;;;;10.25;9.18;;;;;;;25.76;61.54;101232.16;5072289;28;20056;-78
2022/06/16 07:09:47;;;;;;;10.02;8.93;;;;;;;25.79;61.62;101229.16;5072942;28;20060;-78
2022/06/16 07:12:15;;;;;;;9.50;8.60;;;;;;;25.82;61.01;101231.56;5072797;28;20396;-77
2022/06/16 07:14:46;;;;;;;10.80;8.73;;;;;;;25.82;61.09;101226.97;5073109;28;20048;-78
2022/06/16 07:17:15;;;;;;;11.15;9.32;;;;;;;25.84;61.08;101224.09;5073026;28;20044;-78
2022/06/16 07:19:43;;;;;;;10.10;8.98;;;;;;;25.85;61.17;101228.50;5071903;28;20044;-77
2022/06/16 07:22:10;;;;;;;9.93;9.07;;;;;;;25.85;60.85;101232.06;5073041;28;20041;-77
2022/06/16 07:24:39;;;;;;;11.55;10.35;;;;;;;25.86;60.33;101238.34;5071008;28;20491;-76
2022/06/16 07:27:07;;;;;;;9.60;8.80;;;;;;;25.85;59.59;101229.38;5072433;28;20055;-76
2022/06/16 07:29:35;;;;;;;10.23;9.32;;;;;;;25.87;59.61;101223.75;5072987;28;20045;-77
2022/06/16 07:32:11;;;;;;;10.43;9.45;;;;;;;25.86;59.75;101222.91;5070637;28;20049;-76
2022/06/16 07:34:39;;;;;;;11.40;9.30;;;;;;;25.88;59.73;101222.72;5072354;28;20049;-77
2022/06/16 07:37:06;;;;;;;9.98;9.05;;;;;;;25.92;59.93;101218.69;5086186;28;20052;-77
2022/06/16 07:39:34;;;;;;;10.02;9.10;;;;;;;25.95;59.82;101212.94;5091073;28;20043;-77
2022/06/16 07:42:02;;;;;;;9.82;8.82;;;;;;;25.98;59.97;101212.59;5092310;28;20063;-76
2022/06/16 07:44:30;;;;;;;15.48;9.05;;;;;;;25.99;59.88;101211.59;5092378;28;20051;-77
2022/06/16 07:46:57;;;;;;;11.82;10.55;;;;;;;26.00;60.22;101209.72;5092308;28;20059;-76
2022/06/16 07:49:27;;;;;;;12.00;10.90;;;;;;;25.99;59.65;101208.88;5091178;28;20048;-76
2022/06/16 07:51:55;;;;;;;11.90;10.00;;;;;;;25.99;59.69;101210.72;5092371;28;20040;-76
2022/06/16 07:54:24;;;;;;;11.35;10.43;;;;;;;26.00;60.03;101207.84;5092067;28;20514;-76
2022/06/16 07:57:12;;;;;;;11.65;10.55;;;;;;;26.00;59.75;101221.41;5090867;28;20056;-77
2022/06/16 07:59:50;;;;;;;11.85;10.75;;;;;;;26.01;59.80;101219.53;5092262;28;20071;-75
2022/06/16 08:02:17;;;;;;;13.48;10.52;;;;;;;26.01;59.85;101220.41;5092735;28;20051;-76
2022/06/16 08:04:46;;;;;;;10.60;9.57;;;;;;;26.02;59.88;101222.09;5091887;28;20048;-76
2022/06/16 08:07:14;;;;;;;10.43;9.13;;;;;;;26.04;59.42;101219.22;5092212;28;20055;-76
2022/06/16 08:09:41;;;;;;;17.23;10.48;;;;;;;26.04;59.43;101213.78;5091477;28;20055;-76
2022/06/16 08:12:10;;;;;;;10.63;9.63;;;;;;;26.04;59.62;101214.63;5080578;28;20391;-77
2022/06/16 08:14:44;;;;;;;10.65;9.68;;;;;;;26.04;59.60;101203.78;5072433;28;20049;-77
2022/06/16 08:17:16;;;;;;;12.25;10.13;;;;;;;26.05;59.97;101205.50;5072016;28;20052;-76
2022/06/16 08:19:44;;;;;;;11.95;10.77;;;;;;;26.05;59.47;101197.34;5071996;28;20124;-76
2022/06/16 08:22:14;;;;;;;12.15;10.52;;;;;;;26.06;59.35;101203.63;5072153;28;20044;-76
2022/06/16 08:24:42;;;;;;;11.05;9.95;;;;;;;26.08;59.35;101197.00;5072437;28;20381;-76
2022/06/16 08:27:11;;;;;;;10.70;9.65;;;;;;;26.09;59.26;101195.13;5072125;28;20372;-77
2022/06/16 08:29:42;;;;;;;11.18;10.05;;;;;;;26.09;59.26;101196.00;5072251;28;20045;-76
2022/06/16 08:32:11;;;;;;;11.82;10.20;;;;;;;26.09;59.33;101193.28;5075604;28;20405;-77
2022/06/16 08:34:39;;;;;;;12.38;11.18;;;;;;;26.10;59.42;101194.13;5075551;28;20431;-77
2022/06/16 08:37:07;;;;;;;12.70;11.60;;;;;;;26.10;59.27;101186.00;5083204;28;20399;-77
2022/06/16 08:39:35;;;;;;;13.20;11.35;;;;;;;26.09;59.66;101185.16;5095523;28;20040;-77
2022/06/16 08:42:35;;;;;;;11.75;10.65;;;;;;;26.11;59.56;101183.09;5095424;28;20044;-77
2022/06/16 08:45:26;;;;;;;11.82;9.82;;;;;;;26.12;59.58;101176.66;5090631;28;20060;-77
2022/06/16 08:48:12;;;;;;;12.23;11.02;;;;;;;26.13;59.73;101170.22;5094307;28;20052;-77
2022/06/16 08:50:54;;;;;;;12.35;11.18;;;;;;;26.16;59.99;101184.47;5093943;28;20056;-76
2022/06/16 08:53:37;;;;;;;13.15;10.88;;;;;;;26.16;59.78;101179.88;5092738;28;20040;-77
2022/06/16 08:56:23;;;;;;;11.13;9.88;;;;;;;26.17;59.67;101173.47;5074106;28;20060;-77
2022/06/16 08:59:09;;;;;;;10.93;9.93;;;;;;;26.18;59.82;101177.03;5075027;28;20040;-77
2022/06/16 09:02:00;;;;;;;10.52;9.65;;;;;;;26.18;59.64;101177.03;5074457;28;20048;-77
2022/06/16 09:04:40;;;;;;;9.57;8.68;;;;;;;26.19;59.67;101167.84;5074700;28;20048;-77
2022/06/16 09:07:23;;;;;;;11.05;10.05;;;;;;;26.20;60.03;101159.53;5075051;28;20052;-76
2022/06/16 09:10:14;;;;;;;11.90;10.75;;;;;;;26.22;59.96;101164.81;5074952;28;20048;-77
2022/06/16 09:13:17;;;;;;;10.82;9.93;;;;;;;26.22;60.02;101164.81;5074829;28;20056;-77
2022/06/16 09:16:26;;;;;;;12.60;11.30;;;;;;;26.24;59.76;101157.34;5075162;28;20040;-77
2022/06/16 09:19:11;;;;;;;12.40;11.20;;;;;;;26.25;59.60;101162.59;5075381;28;20036;-77
2022/06/16 09:21:58;;;;;;;11.35;10.35;;;;;;;26.25;59.54;101159.03;5075608;28;20388;-77
2022/06/16 09:25:03;;;;;;;11.60;10.35;;;;;;;26.26;59.65;101152.59;5074584;28;20041;-77
2022/06/16 09:27:57;;;;;;;11.93;10.75;;;;;;;26.27;59.54;101146.16;5072896;28;20048;-77
2022/06/16 09:30:30;;;;;;;11.75;10.70;;;;;;;26.26;59.55;101144.47;5073580;28;20063;-77
2022/06/16 09:33:06;;;;;;;12.68;11.48;;;;;;;26.28;59.28;101147.81;5074440;28;20041;-77
2022/06/16 09:35:43;;;;;;;12.10;11.05;;;;;;;26.28;59.25;101148.69;5073602;28;20052;-77
2022/06/16 09:38:19;;;;;;;11.43;10.32;;;;;;;26.28;59.14;101142.41;5078707;28;20044;-77
2022/06/16 09:40:52;;;;;;;11.73;10.27;;;;;;;26.28;59.29;101145.97;5094511;28;20044;-77
2022/06/16 09:43:34;;;;;;;;;;;;;;;26.29;59.44;101146.81;5082220;28;20484;-77
2022/06/16 09:46:16;;;;;;;10.98;9.63;;;;;;;26.30;59.32;101153.94;5074517;28;19921;-77
2022/06/16 09:48:54;;;;;;;10.95;10.05;;;;;;;26.30;59.31;101145.81;5073188;28;20060;-78
2022/06/16 09:51:31;;;;;;;11.63;10.43;;;;;;;26.31;59.58;101144.78;5072782;28;20059;-77
2022/06/16 09:54:16;;;;;;;12.35;10.52;;;;;;;26.31;59.54;101150.22;5074007;28;20052;-77
2022/06/16 09:56:49;;;;;;;11.10;9.93;;;;;;;26.32;59.54;101141.03;5074137;28;20098;-78
2022/06/16 09:59:19;;;;;;;;;;;;;;;26.32;59.71;101147.31;5074557;28;20052;-77
2022/06/16 10:01:54;;;;;;;12.38;11.13;;;;;;;26.32;59.54;101135.63;5074304;28;20024;-78
2022/06/16 10:04:22;;;;;;;11.80;10.57;;;;;;;26.33;59.71;101131.88;5074064;28;20037;-77
2022/06/16 10:06:58;;;;;;;12.10;11.00;;;;;;;26.34;59.65;101131.72;5074133;28;20048;-78
2022/06/16 10:09:44;;;;;;;12.40;11.02;;;;;;;26.35;59.58;101124.41;5074098;28;20046;-78
2022/06/16 10:12:30;;;;;;;10.85;9.88;;;;;;;26.36;59.52;101128.81;5073750;28;20044;-78
2022/06/16 10:15:29;;;;;;;12.45;11.15;;;;;;;26.35;59.74;101119.84;5073746;28;20047;-77
2022/06/16 10:17:58;;;;;;;11.68;10.57;;;;;;;26.37;59.79;101111.50;5051456;28;20057;-77
2022/06/16 10:20:28;;;;;;;10.82;9.82;;;;;;;26.38;59.51;101107.81;5051809;28;20080;-77
2022/06/16 10:23:11;;;;;;;13.75;11.68;;;;;;;26.38;59.73;101108.66;5051324;28;20061;-77
2022/06/16 10:25:45;;;;;;;12.32;11.13;;;;;;;26.40;59.86;101108.47;5034148;28;20053;-76
2022/06/16 10:28:24;;;;;;;12.88;11.57;;;;;;;26.41;60.18;101112.88;5035390;28;20049;-77
2022/06/16 10:30:51;;;;;;;11.45;10.35;;;;;;;26.43;60.05;101107.28;5051295;28;20053;-77
2022/06/16 10:33:25;;;;;;;12.20;11.10;;;;;;;26.44;60.46;101117.13;5051357;28;20045;-76
2022/06/16 10:35:52;;;;;;;14.20;11.68;;;;;;;26.46;60.22;101117.84;5051248;28;20069;-77
2022/06/16 10:38:27;;;;;;;13.48;12.30;;;;;;;26.48;60.12;101119.34;5053241;28;20053;-77
2022/06/16 10:40:55;;;;;;;13.05;11.77;;;;;;;26.51;60.12;101126.31;5053172;28;20087;-77
2022/06/16 10:43:40;;;;;;;12.65;11.57;;;;;;;26.52;60.14;101119.84;5070782;28;20045;-78
2022/06/16 10:46:15;;;;;;;11.95;10.95;;;;;;;26.52;60.08;101120.69;5071311;28;20381;-78
2022/06/16 10:48:54;;;;;;;12.85;11.70;;;;;;;26.54;60.09;101117.81;5037323;28;20056;-78
2022/06/16 10:51:24;;;;;;;13.60;12.40;;;;;;;26.55;60.39;101111.38;5070584;28;20081;-78
2022/06/16 10:54:13;;;;;;;13.80;12.48;;;;;;;26.57;60.40;101107.44;5069929;28;20048;-78
2022/06/16 10:56:45;;;;;;;12.80;11.60;;;;;;;26.61;60.12;101116.09;5073340;28;20052;-78
2022/06/16 10:59:18;;;;;;;14.75;12.23;;;;;;;26.61;60.21;101110.66;5072855;28;20044;-78
2022/06/16 11:01:53;;;;;;;12.88;11.68;;;;;;;26.62;59.90;101115.09;5073119;28;20048;-78
2022/06/16 11:04:23;;;;;;;12.98;11.73;;;;;;;26.63;60.09;101101.31;5072954;28;20044;-77
2022/06/16 11:06:57;;;;;;;12.55;11.45;;;;;;;26.63;60.27;101114.91;5072966;28;20539;-77
2022/06/16 11:09:27;;;;;;;12.80;11.60;;;;;;;26.64;60.07;101110.31;5072666;28;20115;-77
2022/06/16 11:12:06;;;;;;;14.02;11.55;;;;;;;26.65;60.09;101112.00;5072800;28;20044;-77
2022/06/16 11:14:41;;;;;;;11.27;10.27;;;;;;;26.64;59.86;101113.03;5072649;28;20041;-77
2022/06/16 11:17:16;;;;;;;12.73;10.40;;;;;;;26.64;59.57;101113.03;5072965;28;20040;-77
2022/06/16 11:19:48;;;;;;;13.13;10.27;;;;;;;26.65;59.77;101122.03;5072772;28;20376;-77
2022/06/16 11:22:28;;;;;;;11.10;9.97;;;;;;;26.65;59.60;101113.88;5072205;28;20067;-77
2022/06/16 11:25:02;;;;;;;11.43;10.40;;;;;;;26.64;59.72;101113.03;5072756;28;20120;-77
2022/06/16 11:27:39;;;;;;;11.23;10.13;;;;;;;26.63;59.70;101116.78;5072462;28;20051;-77
2022/06/16 11:30:43;;;;;;;10.95;10.05;;;;;;;26.63;59.55;101114.06;5071303;28;20055;-77
2022/06/16 11:34:06;;;;;;;11.57;10.63;;;;;;;26.63;59.48;101109.47;5072927;28;20459;-77
2022/06/16 11:36:13;;;;;;;12.48;10.88;;;;;;;26.62;59.62;101107.78;5072764;28;20040;-77
2022/06/16 11:38:55;;;;;;;11.63;10.43;;;;;;;26.62;59.45;101099.63;5072377;28;20383;-77
2022/06/16 11:41:25;;;;;;;15.80;10.20;;;;;;;26.65;59.33;101103.00;5090100;28;20484;-77
2022/06/16 11:43:58;;;;;;;12.20;11.20;;;;;;;26.64;59.72;101102.16;5093119;28;20048;-76
2022/06/16 11:46:36;;;;;;;12.23;11.00;;;;;;;26.64;59.57;101088.59;5091027;28;20094;-76
2022/06/16 11:49:19;;;;;;;13.02;11.90;;;;;;;26.64;59.53;101088.59;5091153;28;20052;-76
2022/06/16 11:51:59;;;;;;;14.82;11.88;;;;;;;26.65;59.71;101089.44;5090705;28;20052;-76
2022/06/16 11:54:59;;;;;;;12.52;11.15;;;;;;;26.65;59.54;101084.00;5091212;28;20048;-76
2022/06/16 11:57:34;;;;;;;13.05;11.77;;;;;;;26.65;59.58;101081.28;5092249;28;20044;-76
2022/06/16 12:00:06;;;;;;;12.82;11.73;;;;;;;26.66;59.56;101085.69;5092287;28;20479;-76
2022/06/16 12:03:25;;;;;;;12.95;11.27;;;;;;;26.65;59.58;101081.28;5092564;28;20407;-76
2022/06/16 12:06:02;;;;;;;;;;;;;;;26.66;59.53;101085.69;5094843;28;20047;-76
2022/06/16 12:08:37;;;;;;;12.30;11.15;;;;;;;26.66;59.43;101077.53;5078784;28;19927;-76
2022/06/16 12:11:04;;;;;;;11.98;10.77;;;;;;;26.66;59.46;101078.41;5081080;28;20048;-77
2022/06/16 12:13:48;;;;;;;11.55;10.55;;;;;;;26.66;59.23;101067.56;5075078;28;20040;-76
2022/06/16 12:16:22;;;;;;;11.80;10.85;;;;;;;26.66;59.00;101067.56;5076069;28;20048;-76